Jamestown, Kansas
Current Conditions -  °F | °C
As of 11:55 AM on Friday 24 Oct 2014 (Local Time) from KCNK Reporting Station
Clear Clear  
Wind Chill: 68°   Ceiling: Unl
Heat Index: 68°   Visibility: 8mi
Dew Point: 62°   Wind: 10mph
Humidity: 81%   Direction: 230°SW
Pressure: 30"   Gusts: NA
Location:  39.6°N, 97.86°W
Report Text: KCNK 241655Z AUTO 23009KT 8SM CLR 20/17 A3000 RMK AO2 SLP151 T02000167
Loading
Personal Weather Stations






























Interactive Weather Map
Tropical Storm Tracking
New forecast layout! Learn more

10-Day Weather Forecast

Advertisements
Track Severe Weather on mobile